Pointe-Au-Pere, Canada
Current Conditions -  °F | °C
As of 7:00 PM on Friday 28 Nov 2014 (Local Time) from CYYY Reporting Station
Light Snow Light Snow  
Wind Chill:   Ceiling: 2500
Heat Index: 18°   Visibility: 5mi
Dew Point: 14°   Wind: 7mph
Humidity: 86%   Direction: 210°SSW
Pressure: 30.06"   Gusts: NA
Location:  48.52°N, 68.47°W
Report Text: CYYY 290000Z 21006KT 5SM -SN VV025 M08/M10 A3006 RMK SN8 /S01/ SLP183
Loading
Personal Weather Stations






























Interactive Weather Map New forecast layout! Learn more

10-Day Weather Forecast

Advertisements
Track Severe Weather on mobile